Pagrindinis puslapis
METAR-TAF:

METAR-TAF

Oro uostai :

Provideniya, Rusija

platuma: 64-25N, ilguma: 173-14W, Aukštis: 3 m

Dabartinis oras

Ataskaita buvo paskelbta 22 minutes, ne 03:00 UTC
Vėjas 6 kt iš Šiaurės/Šiaurės Rytų
Temperatūra -20°C
Drėgmė 77%
Slėgis 1024 hPa
Matomumas 10 km arba daugiau
nėra debesų žemiau 1500 m ir nėra kamuolinių lietaus debesų

METAR: UHMD 280300Z 03003MPS CAVOK M20/M23 Q1024 RMK QFE768/1024

Laikas: 15:22 (03:22 UTC)

Prognozė

Ataskaita buvo paskelbta 1 valandą ir 40 minutes, ne 01:42 UTC
Prognozė galioja nuo 28 metu 03 UTC su 28 metu 09 UTC
Vėjas 10 kt iš Šiaurės
Matomumas 10 km arba daugiau
Išsisklaidę debesys ne aukštis 1000 ft
Su prošvaistėmis ne aukštis 3000 ft
Laikinai
nuo 28 metu 03 UTC su 28 metu 09 UTC
Matomumas: 1500 m
Su prošvaistėmis ne aukštis 1500 ft
sniegas, rūkana

TAF: UHMD 280142Z 2803/2809 36005MPS 9999 SCT010 BKN030 TEMPO 2803/2809 1500 -SN BR BKN015

Orai ataskaitas ir orų prognozės (METAR, TAF).

turimą stotys yra geltonos ir raudonos taškus žemėlapyje.

Perkelti pele per norėdami pamatyti stoties vardą.

Tada spustelėkite, norėdami matyti oro stebėjimo ir prognozės.

Norėdami pakeisti žemėlapį: spustelėkite ant žalios mygtukų su juodo kryžiaus žemyn,; žalią mygtuką su brūkšneliu, jei norite nutolinti; arba žalių rodyklių gretimoms žemėlapius.


METAR-TAF: